sensor_id;sensor_type;location;lat;lon;timestamp;P1;durP1;ratioP1;P2;durP2;ratioP2
14118;SDS011;7138;49.246;9.100;2022-12-05T00:01:58;37.25;;;11.75;;
14118;SDS011;7138;49.246;9.100;2022-12-05T00:04:24;38.28;;;13.73;;
14118;SDS011;7138;49.246;9.100;2022-12-05T00:06:50;30.90;;;13.25;;
14118;SDS011;7138;49.246;9.100;2022-12-05T00:09:17;35.67;;;13.23;;
14118;SDS011;7138;49.246;9.100;2022-12-05T00:11:43;49.30;;;13.40;;
14118;SDS011;7138;49.246;9.100;2022-12-05T00:14:10;46.50;;;13.40;;
14118;SDS011;7138;49.246;9.100;2022-12-05T00:16:38;49.72;;;14.57;;
14118;SDS011;7138;49.246;9.100;2022-12-05T00:19:07;47.30;;;14.25;;
14118;SDS011;7138;49.246;9.100;2022-12-05T00:24:02;49.38;;;13.32;;
14118;SDS011;7138;49.246;9.100;2022-12-05T00:26:33;45.65;;;13.40;;
14118;SDS011;7138;49.246;9.100;2022-12-05T00:28:59;38.58;;;13.25;;
14118;SDS011;7138;49.246;9.100;2022-12-05T00:31:26;41.63;;;12.65;;
14118;SDS011;7138;49.246;9.100;2022-12-05T00:33:52;32.55;;;11.82;;
14118;SDS011;7138;49.246;9.100;2022-12-05T00:36:21;26.27;;;11.77;;
14118;SDS011;7138;49.246;9.100;2022-12-05T00:38:49;31.13;;;10.90;;
14118;SDS011;7138;49.246;9.100;2022-12-05T00:41:18;32.42;;;11.73;;
14118;SDS011;7138;49.246;9.100;2022-12-05T00:43:47;27.05;;;11.05;;
14118;SDS011;7138;49.246;9.100;2022-12-05T00:46:14;33.42;;;11.75;;
14118;SDS011;7138;49.246;9.100;2022-12-05T00:48:42;28.17;;;8.43;;
14118;SDS011;7138;49.246;9.100;2022-12-05T00:51:13;34.83;;;12.02;;
14118;SDS011;7138;49.246;9.100;2022-12-05T00:53:42;37.00;;;12.68;;
14118;SDS011;7138;49.246;9.100;2022-12-05T00:56:10;32.40;;;12.40;;
14118;SDS011;7138;49.246;9.100;2022-12-05T00:58:38;34.53;;;11.80;;
14118;SDS011;7138;49.246;9.100;2022-12-05T01:01:08;29.98;;;12.95;;
14118;SDS011;7138;49.246;9.100;2022-12-05T01:03:36;40.78;;;12.75;;
14118;SDS011;7138;49.246;9.100;2022-12-05T01:06:03;36.60;;;13.05;;
14118;SDS011;7138;49.246;9.100;2022-12-05T01:08:31;30.73;;;12.63;;
14118;SDS011;7138;49.246;9.100;2022-12-05T01:10:58;31.10;;;12.45;;
14118;SDS011;7138;49.246;9.100;2022-12-05T01:13:25;34.60;;;11.75;;
14118;SDS011;7138;49.246;9.100;2022-12-05T01:15:53;35.90;;;12.95;;
14118;SDS011;7138;49.246;9.100;2022-12-05T01:18:20;34.47;;;12.73;;
14118;SDS011;7138;49.246;9.100;2022-12-05T01:20:48;30.95;;;10.95;;
14118;SDS011;7138;49.246;9.100;2022-12-05T01:23:14;31.05;;;11.07;;
14118;SDS011;7138;49.246;9.100;2022-12-05T01:25:41;28.30;;;10.93;;
14118;SDS011;7138;49.246;9.100;2022-12-05T01:28:09;28.40;;;11.27;;
14118;SDS011;7138;49.246;9.100;2022-12-05T01:30:36;28.23;;;11.35;;
14118;SDS011;7138;49.246;9.100;2022-12-05T01:33:03;30.80;;;11.43;;
14118;SDS011;7138;49.246;9.100;2022-12-05T01:35:31;29.40;;;11.50;;
14118;SDS011;7138;49.246;9.100;2022-12-05T01:37:58;28.98;;;11.35;;
14118;SDS011;7138;49.246;9.100;2022-12-05T01:40:24;25.40;;;11.48;;
14118;SDS011;7138;49.246;9.100;2022-12-05T01:42:50;29.92;;;10.65;;
14118;SDS011;7138;49.246;9.100;2022-12-05T01:45:18;27.15;;;11.00;;
14118;SDS011;7138;49.246;9.100;2022-12-05T01:47:55;22.40;;;9.75;;
14118;SDS011;7138;49.246;9.100;2022-12-05T01:50:21;23.45;;;10.90;;
14118;SDS011;7138;49.246;9.100;2022-12-05T01:52:49;26.52;;;10.80;;
14118;SDS011;7138;49.246;9.100;2022-12-05T01:55:15;26.58;;;11.48;;
14118;SDS011;7138;49.246;9.100;2022-12-05T01:57:43;29.40;;;11.10;;
14118;SDS011;7138;49.246;9.100;2022-12-05T02:00:13;25.00;;;11.67;;
14118;SDS011;7138;49.246;9.100;2022-12-05T02:02:43;26.65;;;11.00;;
14118;SDS011;7138;49.246;9.100;2022-12-05T02:05:16;23.80;;;10.50;;
14118;SDS011;7138;49.246;9.100;2022-12-05T02:07:46;25.92;;;11.27;;
14118;SDS011;7138;49.246;9.100;2022-12-05T02:10:13;22.77;;;10.75;;
14118;SDS011;7138;49.246;9.100;2022-12-05T02:12:40;24.67;;;11.32;;
14118;SDS011;7138;49.246;9.100;2022-12-05T02:15:13;20.77;;;10.00;;
14118;SDS011;7138;49.246;9.100;2022-12-05T02:17:55;26.33;;;11.30;;
14118;SDS011;7138;49.246;9.100;2022-12-05T02:20:38;25.35;;;11.48;;
14118;SDS011;7138;49.246;9.100;2022-12-05T02:23:37;25.83;;;11.30;;
14118;SDS011;7138;49.246;9.100;2022-12-05T02:26:44;24.90;;;11.40;;
14118;SDS011;7138;49.246;9.100;2022-12-05T02:32:34;27.00;;;11.40;;
14118;SDS011;7138;49.246;9.100;2022-12-05T02:35:26;25.33;;;11.25;;
14118;SDS011;7138;49.246;9.100;2022-12-05T02:38:03;26.63;;;11.82;;
14118;SDS011;7138;49.246;9.100;2022-12-05T02:40:42;27.98;;;11.27;;
14118;SDS011;7138;49.246;9.100;2022-12-05T02:45:56;23.17;;;9.75;;
14118;SDS011;7138;49.246;9.100;2022-12-05T02:48:28;29.60;;;11.02;;
14118;SDS011;7138;49.246;9.100;2022-12-05T02:50:57;25.85;;;10.70;;
14118;SDS011;7138;49.246;9.100;2022-12-05T02:53:26;26.50;;;11.18;;
14118;SDS011;7138;49.246;9.100;2022-12-05T02:55:55;24.33;;;10.90;;
14118;SDS011;7138;49.246;9.100;2022-12-05T02:58:22;25.42;;;10.88;;
14118;SDS011;7138;49.246;9.100;2022-12-05T03:00:56;26.52;;;10.35;;
14118;SDS011;7138;49.246;9.100;2022-12-05T03:03:23;25.40;;;10.73;;
14118;SDS011;7138;49.246;9.100;2022-12-05T03:05:50;26.27;;;11.05;;
14118;SDS011;7138;49.246;9.100;2022-12-05T03:08:27;26.00;;;11.40;;
14118;SDS011;7138;49.246;9.100;2022-12-05T03:10:59;24.80;;;10.45;;
14118;SDS011;7138;49.246;9.100;2022-12-05T03:13:28;23.23;;;10.80;;
14118;SDS011;7138;49.246;9.100;2022-12-05T03:16:03;26.10;;;10.85;;
14118;SDS011;7138;49.246;9.100;2022-12-05T03:18:39;23.85;;;10.50;;
14118;SDS011;7138;49.246;9.100;2022-12-05T03:21:14;23.88;;;10.63;;
14118;SDS011;7138;49.246;9.100;2022-12-05T03:23:52;24.90;;;11.07;;
14118;SDS011;7138;49.246;9.100;2022-12-05T03:26:31;23.90;;;9.90;;
14118;SDS011;7138;49.246;9.100;2022-12-05T03:29:14;23.13;;;10.95;;
14118;SDS011;7138;49.246;9.100;2022-12-05T03:31:53;28.85;;;11.27;;
14118;SDS011;7138;49.246;9.100;2022-12-05T03:34:34;22.35;;;9.85;;
14118;SDS011;7138;49.246;9.100;2022-12-05T03:37:14;24.10;;;10.35;;
14118;SDS011;7138;49.246;9.100;2022-12-05T03:39:52;27.35;;;11.70;;
14118;SDS011;7138;49.246;9.100;2022-12-05T03:45:02;24.20;;;10.55;;
14118;SDS011;7138;49.246;9.100;2022-12-05T03:47:38;22.85;;;10.13;;
14118;SDS011;7138;49.246;9.100;2022-12-05T03:50:13;20.48;;;9.68;;
14118;SDS011;7138;49.246;9.100;2022-12-05T03:52:47;24.40;;;10.70;;
14118;SDS011;7138;49.246;9.100;2022-12-05T03:55:21;25.27;;;11.45;;
14118;SDS011;7138;49.246;9.100;2022-12-05T03:57:53;25.15;;;10.35;;
14118;SDS011;7138;49.246;9.100;2022-12-05T04:00:25;29.17;;;11.40;;
14118;SDS011;7138;49.246;9.100;2022-12-05T04:02:58;28.17;;;11.23;;
14118;SDS011;7138;49.246;9.100;2022-12-05T04:05:34;27.30;;;11.18;;
14118;SDS011;7138;49.246;9.100;2022-12-05T04:08:08;25.33;;;11.65;;
14118;SDS011;7138;49.246;9.100;2022-12-05T04:10:41;27.15;;;11.10;;
14118;SDS011;7138;49.246;9.100;2022-12-05T04:13:16;27.63;;;11.27;;
14118;SDS011;7138;49.246;9.100;2022-12-05T04:15:49;27.45;;;10.80;;
14118;SDS011;7138;49.246;9.100;2022-12-05T04:18:43;25.85;;;11.30;;
14118;SDS011;7138;49.246;9.100;2022-12-05T04:21:19;20.25;;;8.60;;
14118;SDS011;7138;49.246;9.100;2022-12-05T04:24:02;27.15;;;11.50;;
14118;SDS011;7138;49.246;9.100;2022-12-05T04:26:49;24.35;;;10.48;;
14118;SDS011;7138;49.246;9.100;2022-12-05T04:29:28;27.92;;;11.77;;
14118;SDS011;7138;49.246;9.100;2022-12-05T04:32:03;24.40;;;11.02;;
14118;SDS011;7138;49.246;9.100;2022-12-05T04:34:36;25.98;;;11.65;;
14118;SDS011;7138;49.246;9.100;2022-12-05T04:37:08;24.73;;;10.80;;
14118;SDS011;7138;49.246;9.100;2022-12-05T04:39:39;30.52;;;11.80;;
14118;SDS011;7138;49.246;9.100;2022-12-05T04:42:14;30.10;;;11.40;;
14118;SDS011;7138;49.246;9.100;2022-12-05T04:44:47;29.00;;;13.15;;
14118;SDS011;7138;49.246;9.100;2022-12-05T04:47:17;30.58;;;13.50;;
14118;SDS011;7138;49.246;9.100;2022-12-05T04:49:52;29.30;;;12.55;;
14118;SDS011;7138;49.246;9.100;2022-12-05T04:52:20;20.75;;;9.00;;
14118;SDS011;7138;49.246;9.100;2022-12-05T04:54:47;28.08;;;11.98;;
14118;SDS011;7138;49.246;9.100;2022-12-05T04:57:23;28.08;;;11.60;;
14118;SDS011;7138;49.246;9.100;2022-12-05T04:59:54;25.55;;;11.60;;
14118;SDS011;7138;49.246;9.100;2022-12-05T05:02:21;24.13;;;11.88;;
14118;SDS011;7138;49.246;9.100;2022-12-05T05:04:57;30.67;;;12.13;;
14118;SDS011;7138;49.246;9.100;2022-12-05T05:07:27;26.83;;;11.80;;
14118;SDS011;7138;49.246;9.100;2022-12-05T05:09:54;28.75;;;12.77;;
14118;SDS011;7138;49.246;9.100;2022-12-05T05:12:20;32.20;;;12.50;;
14118;SDS011;7138;49.246;9.100;2022-12-05T05:14:46;28.45;;;11.95;;
14118;SDS011;7138;49.246;9.100;2022-12-05T05:17:12;35.05;;;12.73;;
14118;SDS011;7138;49.246;9.100;2022-12-05T05:19:38;28.70;;;12.27;;
14118;SDS011;7138;49.246;9.100;2022-12-05T05:22:05;29.58;;;12.52;;
14118;SDS011;7138;49.246;9.100;2022-12-05T05:24:31;27.70;;;12.30;;
14118;SDS011;7138;49.246;9.100;2022-12-05T05:26:57;29.02;;;12.88;;
14118;SDS011;7138;49.246;9.100;2022-12-05T05:29:22;32.17;;;12.18;;
14118;SDS011;7138;49.246;9.100;2022-12-05T05:31:48;35.53;;;14.80;;
14118;SDS011;7138;49.246;9.100;2022-12-05T05:34:14;42.95;;;19.23;;
14118;SDS011;7138;49.246;9.100;2022-12-05T05:36:40;43.95;;;21.13;;
14118;SDS011;7138;49.246;9.100;2022-12-05T05:39:10;40.83;;;19.40;;
14118;SDS011;7138;49.246;9.100;2022-12-05T05:41:38;53.58;;;26.58;;
14118;SDS011;7138;49.246;9.100;2022-12-05T05:44:05;37.90;;;16.83;;
14118;SDS011;7138;49.246;9.100;2022-12-05T05:46:32;35.13;;;14.90;;
14118;SDS011;7138;49.246;9.100;2022-12-05T05:48:59;33.05;;;14.50;;
14118;SDS011;7138;49.246;9.100;2022-12-05T05:51:26;36.83;;;16.83;;
14118;SDS011;7138;49.246;9.100;2022-12-05T05:53:53;34.13;;;15.40;;
14118;SDS011;7138;49.246;9.100;2022-12-05T05:56:21;30.60;;;13.35;;
14118;SDS011;7138;49.246;9.100;2022-12-05T05:58:47;30.92;;;13.70;;
14118;SDS011;7138;49.246;9.100;2022-12-05T06:01:19;39.22;;;15.32;;
14118;SDS011;7138;49.246;9.100;2022-12-05T06:03:45;32.58;;;14.82;;
14118;SDS011;7138;49.246;9.100;2022-12-05T06:06:13;33.75;;;14.60;;
14118;SDS011;7138;49.246;9.100;2022-12-05T06:08:40;32.33;;;14.15;;
14118;SDS011;7138;49.246;9.100;2022-12-05T06:11:08;33.60;;;13.98;;
14118;SDS011;7138;49.246;9.100;2022-12-05T06:13:37;35.28;;;14.45;;
14118;SDS011;7138;49.246;9.100;2022-12-05T06:16:04;33.45;;;14.35;;
14118;SDS011;7138;49.246;9.100;2022-12-05T06:18:32;33.92;;;14.82;;
14118;SDS011;7138;49.246;9.100;2022-12-05T06:20:58;32.50;;;14.75;;
14118;SDS011;7138;49.246;9.100;2022-12-05T06:23:25;32.58;;;14.27;;
14118;SDS011;7138;49.246;9.100;2022-12-05T06:25:52;31.45;;;14.50;;
14118;SDS011;7138;49.246;9.100;2022-12-05T06:28:21;31.35;;;15.73;;
14118;SDS011;7138;49.246;9.100;2022-12-05T06:30:50;33.25;;;14.80;;
14118;SDS011;7138;49.246;9.100;2022-12-05T06:33:16;31.40;;;14.88;;
14118;SDS011;7138;49.246;9.100;2022-12-05T06:35:43;33.83;;;14.80;;
14118;SDS011;7138;49.246;9.100;2022-12-05T06:38:10;31.98;;;13.50;;
14118;SDS011;7138;49.246;9.100;2022-12-05T06:40:38;29.75;;;13.85;;
14118;SDS011;7138;49.246;9.100;2022-12-05T06:43:05;27.90;;;12.80;;
14118;SDS011;7138;49.246;9.100;2022-12-05T06:45:31;29.33;;;13.32;;
14118;SDS011;7138;49.246;9.100;2022-12-05T06:47:59;27.85;;;12.88;;
14118;SDS011;7138;49.246;9.100;2022-12-05T06:50:24;30.20;;;12.93;;
14118;SDS011;7138;49.246;9.100;2022-12-05T06:52:50;29.90;;;13.65;;
14118;SDS011;7138;49.246;9.100;2022-12-05T06:55:16;30.88;;;14.05;;
14118;SDS011;7138;49.246;9.100;2022-12-05T06:57:42;31.55;;;13.70;;
14118;SDS011;7138;49.246;9.100;2022-12-05T07:00:08;37.08;;;16.85;;
14118;SDS011;7138;49.246;9.100;2022-12-05T07:02:54;33.58;;;14.63;;
14118;SDS011;7138;49.246;9.100;2022-12-05T07:05:21;28.45;;;12.23;;
14118;SDS011;7138;49.246;9.100;2022-12-05T07:07:47;32.83;;;17.17;;
14118;SDS011;7138;49.246;9.100;2022-12-05T07:10:13;31.92;;;15.10;;
14118;SDS011;7138;49.246;9.100;2022-12-05T07:12:39;32.03;;;14.10;;
14118;SDS011;7138;49.246;9.100;2022-12-05T07:15:05;30.60;;;13.68;;
14118;SDS011;7138;49.246;9.100;2022-12-05T07:17:33;27.17;;;12.73;;
14118;SDS011;7138;49.246;9.100;2022-12-05T07:20:03;29.35;;;13.40;;
14118;SDS011;7138;49.246;9.100;2022-12-05T07:22:34;27.52;;;12.25;;
14118;SDS011;7138;49.246;9.100;2022-12-05T07:25:01;32.63;;;14.63;;
14118;SDS011;7138;49.246;9.100;2022-12-05T07:27:27;28.40;;;13.15;;
14118;SDS011;7138;49.246;9.100;2022-12-05T07:29:53;32.38;;;14.60;;
14118;SDS011;7138;49.246;9.100;2022-12-05T07:32:20;29.15;;;12.63;;
14118;SDS011;7138;49.246;9.100;2022-12-05T07:34:46;28.35;;;13.07;;
14118;SDS011;7138;49.246;9.100;2022-12-05T07:37:12;31.00;;;13.50;;
14118;SDS011;7138;49.246;9.100;2022-12-05T07:39:39;26.95;;;12.93;;
14118;SDS011;7138;49.246;9.100;2022-12-05T07:42:05;32.05;;;14.05;;
14118;SDS011;7138;49.246;9.100;2022-12-05T07:44:31;30.92;;;12.23;;
14118;SDS011;7138;49.246;9.100;2022-12-05T07:46:57;29.67;;;13.75;;
14118;SDS011;7138;49.246;9.100;2022-12-05T07:49:23;28.73;;;12.88;;
14118;SDS011;7138;49.246;9.100;2022-12-05T07:51:49;28.20;;;13.70;;
14118;SDS011;7138;49.246;9.100;2022-12-05T07:54:15;28.50;;;12.95;;
14118;SDS011;7138;49.246;9.100;2022-12-05T07:56:43;26.02;;;11.80;;
14118;SDS011;7138;49.246;9.100;2022-12-05T07:59:08;31.27;;;13.70;;
14118;SDS011;7138;49.246;9.100;2022-12-05T08:01:34;28.95;;;12.35;;
14118;SDS011;7138;49.246;9.100;2022-12-05T08:04:00;30.95;;;13.52;;
14118;SDS011;7138;49.246;9.100;2022-12-05T08:06:28;29.10;;;12.35;;
14118;SDS011;7138;49.246;9.100;2022-12-05T08:08:55;26.90;;;12.98;;
14118;SDS011;7138;49.246;9.100;2022-12-05T08:11:22;28.13;;;13.18;;
14118;SDS011;7138;49.246;9.100;2022-12-05T08:13:53;30.27;;;12.85;;
14118;SDS011;7138;49.246;9.100;2022-12-05T08:16:20;29.73;;;13.65;;
14118;SDS011;7138;49.246;9.100;2022-12-05T08:18:48;30.83;;;13.57;;
14118;SDS011;7138;49.246;9.100;2022-12-05T08:21:18;32.45;;;14.13;;
14118;SDS011;7138;49.246;9.100;2022-12-05T08:23:44;30.23;;;13.73;;
14118;SDS011;7138;49.246;9.100;2022-12-05T08:26:12;29.23;;;13.40;;
14118;SDS011;7138;49.246;9.100;2022-12-05T08:28:39;24.35;;;12.45;;
14118;SDS011;7138;49.246;9.100;2022-12-05T08:31:09;31.90;;;14.35;;
14118;SDS011;7138;49.246;9.100;2022-12-05T08:33:37;33.72;;;15.27;;
14118;SDS011;7138;49.246;9.100;2022-12-05T08:36:05;44.33;;;19.15;;
14118;SDS011;7138;49.246;9.100;2022-12-05T08:41:01;25.27;;;13.13;;
14118;SDS011;7138;49.246;9.100;2022-12-05T08:43:28;30.23;;;13.55;;
14118;SDS011;7138;49.246;9.100;2022-12-05T08:45:55;29.70;;;14.48;;
14118;SDS011;7138;49.246;9.100;2022-12-05T08:48:22;32.22;;;14.15;;
14118;SDS011;7138;49.246;9.100;2022-12-05T08:50:49;29.35;;;14.23;;
14118;SDS011;7138;49.246;9.100;2022-12-05T08:53:15;29.40;;;13.05;;
14118;SDS011;7138;49.246;9.100;2022-12-05T08:55:41;27.50;;;13.48;;
14118;SDS011;7138;49.246;9.100;2022-12-05T08:58:09;32.92;;;15.20;;
14118;SDS011;7138;49.246;9.100;2022-12-05T09:00:36;31.38;;;14.00;;
14118;SDS011;7138;49.246;9.100;2022-12-05T09:03:02;38.13;;;15.20;;
14118;SDS011;7138;49.246;9.100;2022-12-05T09:05:29;29.17;;;13.65;;
14118;SDS011;7138;49.246;9.100;2022-12-05T09:07:55;38.15;;;16.23;;
14118;SDS011;7138;49.246;9.100;2022-12-05T09:10:23;31.20;;;14.68;;
14118;SDS011;7138;49.246;9.100;2022-12-05T09:12:49;31.65;;;13.50;;
14118;SDS011;7138;49.246;9.100;2022-12-05T09:15:15;26.58;;;13.02;;
14118;SDS011;7138;49.246;9.100;2022-12-05T09:17:42;26.98;;;13.15;;
14118;SDS011;7138;49.246;9.100;2022-12-05T09:20:08;28.25;;;13.40;;
14118;SDS011;7138;49.246;9.100;2022-12-05T09:22:39;24.13;;;12.25;;
14118;SDS011;7138;49.246;9.100;2022-12-05T09:25:06;28.88;;;12.90;;
14118;SDS011;7138;49.246;9.100;2022-12-05T09:27:33;24.65;;;12.00;;
14118;SDS011;7138;49.246;9.100;2022-12-05T09:29:59;25.05;;;12.57;;
14118;SDS011;7138;49.246;9.100;2022-12-05T09:32:25;33.25;;;14.50;;
14118;SDS011;7138;49.246;9.100;2022-12-05T09:34:51;27.60;;;13.68;;
14118;SDS011;7138;49.246;9.100;2022-12-05T09:37:19;31.67;;;14.55;;
14118;SDS011;7138;49.246;9.100;2022-12-05T09:39:46;28.13;;;13.07;;
14118;SDS011;7138;49.246;9.100;2022-12-05T09:42:17;28.00;;;12.65;;
14118;SDS011;7138;49.246;9.100;2022-12-05T09:45:14;25.27;;;12.32;;
14118;SDS011;7138;49.246;9.100;2022-12-05T09:47:55;25.67;;;13.15;;
14118;SDS011;7138;49.246;9.100;2022-12-05T09:50:26;29.27;;;13.95;;
14118;SDS011;7138;49.246;9.100;2022-12-05T09:52:58;25.33;;;12.48;;
14118;SDS011;7138;49.246;9.100;2022-12-05T09:55:43;29.38;;;13.85;;
14118;SDS011;7138;49.246;9.100;2022-12-05T09:58:19;28.65;;;13.07;;
14118;SDS011;7138;49.246;9.100;2022-12-05T10:01:02;26.38;;;12.52;;
14118;SDS011;7138;49.246;9.100;2022-12-05T10:03:54;28.48;;;13.65;;
14118;SDS011;7138;49.246;9.100;2022-12-05T10:06:33;28.65;;;13.35;;
14118;SDS011;7138;49.246;9.100;2022-12-05T10:09:09;27.30;;;12.90;;
14118;SDS011;7138;49.246;9.100;2022-12-05T10:11:58;27.10;;;13.43;;
14118;SDS011;7138;49.246;9.100;2022-12-05T10:14:41;29.55;;;13.57;;
14118;SDS011;7138;49.246;9.100;2022-12-05T10:17:20;25.33;;;12.82;;
14118;SDS011;7138;49.246;9.100;2022-12-05T10:19:52;29.35;;;13.45;;
14118;SDS011;7138;49.246;9.100;2022-12-05T10:22:27;33.42;;;13.70;;
14118;SDS011;7138;49.246;9.100;2022-12-05T10:25:02;36.00;;;15.18;;
14118;SDS011;7138;49.246;9.100;2022-12-05T10:27:32;30.40;;;13.27;;
14118;SDS011;7138;49.246;9.100;2022-12-05T10:30:03;29.42;;;14.02;;
14118;SDS011;7138;49.246;9.100;2022-12-05T10:32:38;25.75;;;12.43;;
14118;SDS011;7138;49.246;9.100;2022-12-05T10:35:18;25.23;;;13.05;;
14118;SDS011;7138;49.246;9.100;2022-12-05T10:37:46;21.47;;;10.27;;
14118;SDS011;7138;49.246;9.100;2022-12-05T10:40:16;27.63;;;11.88;;
14118;SDS011;7138;49.246;9.100;2022-12-05T10:42:44;23.63;;;11.73;;
14118;SDS011;7138;49.246;9.100;2022-12-05T10:45:13;24.58;;;11.15;;
14118;SDS011;7138;49.246;9.100;2022-12-05T10:47:44;26.17;;;11.95;;
14118;SDS011;7138;49.246;9.100;2022-12-05T10:50:22;26.17;;;12.55;;
14118;SDS011;7138;49.246;9.100;2022-12-05T10:52:52;24.92;;;11.73;;
14118;SDS011;7138;49.246;9.100;2022-12-05T10:55:21;25.37;;;12.83;;
14118;SDS011;7138;49.246;9.100;2022-12-05T10:58:07;28.95;;;12.57;;
14118;SDS011;7138;49.246;9.100;2022-12-05T11:00:37;31.95;;;13.00;;
14118;SDS011;7138;49.246;9.100;2022-12-05T11:03:18;29.50;;;14.63;;
14118;SDS011;7138;49.246;9.100;2022-12-05T11:05:53;28.98;;;13.40;;
14118;SDS011;7138;49.246;9.100;2022-12-05T11:08:22;25.65;;;12.38;;
14118;SDS011;7138;49.246;9.100;2022-12-05T11:10:57;25.13;;;12.85;;
14118;SDS011;7138;49.246;9.100;2022-12-05T11:13:29;27.08;;;13.82;;
14118;SDS011;7138;49.246;9.100;2022-12-05T11:15:55;27.80;;;13.25;;
14118;SDS011;7138;49.246;9.100;2022-12-05T11:18:26;31.17;;;14.07;;
14118;SDS011;7138;49.246;9.100;2022-12-05T11:20:55;30.70;;;13.48;;
14118;SDS011;7138;49.246;9.100;2022-12-05T11:23:33;31.60;;;13.80;;
14118;SDS011;7138;49.246;9.100;2022-12-05T11:25:59;29.25;;;14.10;;
14118;SDS011;7138;49.246;9.100;2022-12-05T11:28:34;28.88;;;14.57;;
14118;SDS011;7138;49.246;9.100;2022-12-05T11:31:03;31.10;;;14.48;;
14118;SDS011;7138;49.246;9.100;2022-12-05T11:33:43;32.78;;;14.57;;
14118;SDS011;7138;49.246;9.100;2022-12-05T11:36:38;27.92;;;14.60;;
14118;SDS011;7138;49.246;9.100;2022-12-05T11:39:09;22.70;;;12.45;;
14118;SDS011;7138;49.246;9.100;2022-12-05T11:41:43;29.48;;;13.70;;
14118;SDS011;7138;49.246;9.100;2022-12-05T11:44:38;29.08;;;12.82;;
14118;SDS011;7138;49.246;9.100;2022-12-05T11:47:32;25.73;;;14.25;;
14118;SDS011;7138;49.246;9.100;2022-12-05T11:50:22;26.52;;;13.32;;
14118;SDS011;7138;49.246;9.100;2022-12-05T11:53:08;29.00;;;14.20;;
14118;SDS011;7138;49.246;9.100;2022-12-05T11:56:15;29.30;;;13.40;;
14118;SDS011;7138;49.246;9.100;2022-12-05T11:59:07;25.33;;;13.18;;
14118;SDS011;7138;49.246;9.100;2022-12-05T12:02:12;24.92;;;13.30;;
14118;SDS011;7138;49.246;9.100;2022-12-05T12:04:51;27.95;;;14.10;;
14118;SDS011;7138;49.246;9.100;2022-12-05T12:07:36;26.50;;;13.68;;
14118;SDS011;7138;49.246;9.100;2022-12-05T12:10:20;23.98;;;13.30;;
14118;SDS011;7138;49.246;9.100;2022-12-05T12:12:56;27.63;;;14.43;;
14118;SDS011;7138;49.246;9.100;2022-12-05T12:15:46;26.13;;;13.15;;
14118;SDS011;7138;49.246;9.100;2022-12-05T12:18:30;27.95;;;14.15;;
14118;SDS011;7138;49.246;9.100;2022-12-05T12:21:22;26.27;;;13.75;;
14118;SDS011;7138;49.246;9.100;2022-12-05T12:24:14;29.25;;;14.80;;
14118;SDS011;7138;49.246;9.100;2022-12-05T12:26:53;26.27;;;13.80;;
14118;SDS011;7138;49.246;9.100;2022-12-05T12:29:33;28.38;;;13.35;;
14118;SDS011;7138;49.246;9.100;2022-12-05T12:32:21;25.40;;;13.30;;
14118;SDS011;7138;49.246;9.100;2022-12-05T12:37:54;28.20;;;13.55;;
14118;SDS011;7138;49.246;9.100;2022-12-05T12:40:47;23.63;;;12.68;;
14118;SDS011;7138;49.246;9.100;2022-12-05T12:43:24;23.45;;;12.32;;
14118;SDS011;7138;49.246;9.100;2022-12-05T12:46:10;27.77;;;13.30;;
14118;SDS011;7138;49.246;9.100;2022-12-05T12:49:00;25.23;;;12.90;;
14118;SDS011;7138;49.246;9.100;2022-12-05T12:52:02;24.55;;;13.00;;
14118;SDS011;7138;49.246;9.100;2022-12-05T12:54:37;23.05;;;12.57;;
14118;SDS011;7138;49.246;9.100;2022-12-05T12:57:28;24.38;;;12.48;;
14118;SDS011;7138;49.246;9.100;2022-12-05T13:00:12;26.95;;;12.88;;
14118;SDS011;7138;49.246;9.100;2022-12-05T13:02:49;25.23;;;13.13;;
14118;SDS011;7138;49.246;9.100;2022-12-05T13:05:26;24.42;;;12.68;;
14118;SDS011;7138;49.246;9.100;2022-12-05T13:08:04;23.15;;;11.73;;
14118;SDS011;7138;49.246;9.100;2022-12-05T13:10:41;27.73;;;12.15;;
14118;SDS011;7138;49.246;9.100;2022-12-05T13:13:10;23.23;;;10.73;;
14118;SDS011;7138;49.246;9.100;2022-12-05T13:15:42;23.00;;;12.52;;
14118;SDS011;7138;49.246;9.100;2022-12-05T13:18:13;21.35;;;11.30;;
14118;SDS011;7138;49.246;9.100;2022-12-05T13:20:43;25.33;;;11.98;;
14118;SDS011;7138;49.246;9.100;2022-12-05T13:23:17;20.15;;;11.23;;
14118;SDS011;7138;49.246;9.100;2022-12-05T13:25:48;22.17;;;10.93;;
14118;SDS011;7138;49.246;9.100;2022-12-05T13:28:22;20.75;;;10.93;;
14118;SDS011;7138;49.246;9.100;2022-12-05T13:30:54;19.70;;;10.40;;
14118;SDS011;7138;49.246;9.100;2022-12-05T13:33:22;19.30;;;10.43;;
14118;SDS011;7138;49.246;9.100;2022-12-05T13:35:53;20.08;;;10.57;;
14118;SDS011;7138;49.246;9.100;2022-12-05T13:38:41;20.92;;;10.57;;
14118;SDS011;7138;49.246;9.100;2022-12-05T13:41:37;20.45;;;10.27;;
14118;SDS011;7138;49.246;9.100;2022-12-05T13:44:30;19.20;;;10.73;;
14118;SDS011;7138;49.246;9.100;2022-12-05T13:47:02;19.60;;;10.15;;
14118;SDS011;7138;49.246;9.100;2022-12-05T13:49:34;19.20;;;9.18;;
14118;SDS011;7138;49.246;9.100;2022-12-05T13:52:08;18.05;;;9.35;;
14118;SDS011;7138;49.246;9.100;2022-12-05T13:54:45;18.10;;;9.20;;
14118;SDS011;7138;49.246;9.100;2022-12-05T14:03:03;16.17;;;8.82;;
14118;SDS011;7138;49.246;9.100;2022-12-05T14:05:42;18.48;;;9.75;;
14118;SDS011;7138;49.246;9.100;2022-12-05T14:11:21;17.27;;;8.40;;
14118;SDS011;7138;49.246;9.100;2022-12-05T14:13:47;16.67;;;8.43;;
14118;SDS011;7138;49.246;9.100;2022-12-05T14:22:23;14.50;;;7.18;;
14118;SDS011;7138;49.246;9.100;2022-12-05T14:25:22;13.70;;;6.90;;
14118;SDS011;7138;49.246;9.100;2022-12-05T14:28:11;15.77;;;8.00;;
14118;SDS011;7138;49.246;9.100;2022-12-05T14:30:58;18.40;;;8.52;;
14118;SDS011;7138;49.246;9.100;2022-12-05T14:33:52;15.50;;;8.15;;
14118;SDS011;7138;49.246;9.100;2022-12-05T14:36:54;17.27;;;8.63;;
14118;SDS011;7138;49.246;9.100;2022-12-05T14:39:32;18.13;;;9.35;;
14118;SDS011;7138;49.246;9.100;2022-12-05T14:42:04;17.77;;;9.13;;
14118;SDS011;7138;49.246;9.100;2022-12-05T14:44:49;14.25;;;7.68;;
14118;SDS011;7138;49.246;9.100;2022-12-05T14:47:19;17.88;;;8.20;;
14118;SDS011;7138;49.246;9.100;2022-12-05T14:49:53;15.63;;;8.40;;
14118;SDS011;7138;49.246;9.100;2022-12-05T14:52:26;17.27;;;8.77;;
14118;SDS011;7138;49.246;9.100;2022-12-05T14:54:57;15.15;;;8.80;;
14118;SDS011;7138;49.246;9.100;2022-12-05T14:57:35;15.93;;;9.10;;
14118;SDS011;7138;49.246;9.100;2022-12-05T15:00:16;18.77;;;9.68;;
14118;SDS011;7138;49.246;9.100;2022-12-05T15:02:46;16.10;;;9.10;;
14118;SDS011;7138;49.246;9.100;2022-12-05T15:05:18;16.25;;;9.13;;
14118;SDS011;7138;49.246;9.100;2022-12-05T15:07:50;15.70;;;9.57;;
14118;SDS011;7138;49.246;9.100;2022-12-05T15:10:20;17.58;;;9.73;;
14118;SDS011;7138;49.246;9.100;2022-12-05T15:12:49;17.73;;;9.38;;
14118;SDS011;7138;49.246;9.100;2022-12-05T15:15:24;18.85;;;10.35;;
14118;SDS011;7138;49.246;9.100;2022-12-05T15:18:01;15.87;;;8.87;;
14118;SDS011;7138;49.246;9.100;2022-12-05T15:20:40;18.10;;;9.38;;
14118;SDS011;7138;49.246;9.100;2022-12-05T15:26:11;18.40;;;10.43;;
14118;SDS011;7138;49.246;9.100;2022-12-05T15:28:57;18.80;;;9.60;;
14118;SDS011;7138;49.246;9.100;2022-12-05T15:31:27;17.88;;;9.57;;
14118;SDS011;7138;49.246;9.100;2022-12-05T15:33:58;16.60;;;9.80;;
14118;SDS011;7138;49.246;9.100;2022-12-05T15:36:32;18.30;;;10.13;;
14118;SDS011;7138;49.246;9.100;2022-12-05T15:39:03;17.92;;;9.10;;
14118;SDS011;7138;49.246;9.100;2022-12-05T15:41:30;15.93;;;8.82;;
14118;SDS011;7138;49.246;9.100;2022-12-05T15:43:56;18.63;;;9.90;;